Great Linford, United Kingdom
Current Conditions -  °F | °C
As of 3:50 PM on Thursday 30 Oct 2014 (Local Time) from EGTC Reporting Station
Clear Clear  
Wind Chill: 63°   Ceiling: Unl
Heat Index: 63°   Visibility: 5mi
Dew Point: 61°   Wind: 8mph
Humidity: 94%   Direction: 170°S
Pressure: 30.03"   Gusts: NA
Location:  52.08°N, 0.75°W
Report Text: EGTC 301550Z 17007KT 8000 NSC 17/16 Q1017
Loading
Personal Weather Stations






























Interactive Weather Map
Tropical Storm Tracking
New forecast layout! Learn more

10-Day Weather Forecast

Advertisements
Track Severe Weather on mobile